X  Close Metar Aviation Weather Data     LDPL Pula Airport
Temperature
25°C Temperature
21°C Dewpoint
79% Humidity



Wind
4 M/S
8 MPH
13 KM/H
7 KTS



30°
NNE
Current Conditions

Clear Clear
Pressure 1009.92 (hPa) - 29.82 (inHg)
Visibility 6.2 (mile) - 10 (km)
Airport
Airport-code LDPL

Location: Pula Airport
Distance: 39 (km)

Metar:
LDPL 290030Z 03007KT CAVOK 25/21 Q1010

Time: 29-06-2022 02:30 CEST